Pond Inlet Airport
CYIO : now visible

Airfield :











YOU CAN JOIN US ON...

 
LOGIN :

Register | Disclaimer

   EN    FR    IT 

 









Legend :    VFR   Marginal VFR   IFR   Intensive IFR   Very Intensive IFR
Visi :
Ceiling :
>= 8 km
>= 3000ft
5 to 8 km
1000 to 3000 ft
1500m to 5 km
500 to 1000 ft
800 to 1500m
200 to 500 ft
< 800m
< 200 ft
Symbols :   Thunderstorms  Fog  Heavy snow  Heavy precipitations  Wind > 20 kt






- Airport Elevation : 181 ft
- IATA code : YIO


CYIO - Pond Inlet

CURRENT METAR :
  • 051700Z 19004KT 15SM IC BKN055 OVC250 M31/M34 A2962 RMK SC7CI1 SLP043

EXPIRED METARs :
  • 051600Z 18004KT 15SM IC BKN060 OVC250 M31/M34 A2962 RMK SC6CI2 S00 AFT 00UTC/32/SNW CVR/MUCH LOOSE SLP044
  • 051500Z AUTO 17005KT 9SM FEW065 M33/M36 A2962 RMK SLP044

TAF TAF CYIO
Valid from the 05 at 13:00 until the 06 at 01:00 UTC


051238Z 0513/0601 17006KT P6SM SCT050
TEMPO 0513/0601 5SM -SN BKN050 RMK FCST BASED ON AUTO OBS. NXT FCST BY 051900Z



MET'MAP, your aeronautical weather chart ! - Copyright ORBIFLY December 2007 - Disclaimer

ORBIFLY MET'MAP TEAM :

Programming & Development : Alexandra Zaïnal
Concept & original design : Baudouin d'Aumeries
Assistance for programming : Marc-Olivier Méhu
Technical & hardware support : Manuel Goepfert

Contact : metmap@orbifly.com




SOURCES & CREDITS :

   NOAA       Earth
Advisory